Abalone 2 — FAE3065 — position and weather

sailwx.info

Track history (hours):
 
Tides and Currents Weather Stations Pressure Air Temp Water Temp Dewpoint Dewpoint Depression Visibility Wind Speed Wind Dir Waves Ship Positions

Abalone 2

Last reported at 2018-Feb-19 04:00 UTC. Time now 2018-Feb-19 04:14 UTC.
Position N 17°00' W 061°46'.

Type: Sailing vessel. MMSI: 227463080.

Date/timePositionNaut miles runAvg speedWind from/ knotsBaromVisibWave heightAir tempDewpointWater temp
2018-Feb-19 04:00N 17°00' W 061°46'0 0.0
2018-Feb-19 03:30N 17°00' W 061°46'0 0.0
2018-Feb-19 03:00N 17°00' W 061°46'0 0.0
2018-Feb-19 02:30N 17°00' W 061°46'0 0.0
2018-Feb-19 02:00N 17°00' W 061°46'0 0.0
2018-Feb-19 01:30N 17°00' W 061°46'0 0.0
2018-Feb-19 01:00N 17°00' W 061°46'0 0.0
2018-Feb-19 00:30N 17°00' W 061°46'0 0.0
2018-Feb-19 00:00N 17°00' W 061°46'0 0.0
2018-Feb-18 23:30N 17°00' W 061°46'0 0.0
2018-Feb-18 23:00N 17°00' W 061°46'0 0.0
2018-Feb-18 22:27N 17°00' W 061°46'0 0.0
2018-Feb-18 22:00N 17°00' W 061°46'0 0.0
2018-Feb-18 21:30N 17°00' W 061°46'0 0.0
2018-Feb-18 21:00N 17°00' W 061°46'0 0.3
2018-Feb-18 20:30N 17°00' W 061°46'1 1.9
2018-Feb-18 20:00N 16°60' W 061°47'3 0.1
2018-Feb-17 18:35N 16°59' W 061°49'0 5.2
2018-Feb-17 18:30N 16°59' W 061°49'2 3.9
2018-Feb-17 18:00N 16°58' W 061°47'2 4.6
2018-Feb-17 17:30N 16°59' W 061°45'2 4.5
2018-Feb-17 16:59N 17°00' W 061°43'6 4.3
2018-Feb-17 15:34N 17°05' W 061°40'1 5.4
2018-Feb-17 15:28N 17°06' W 061°40'2 5.2
2018-Feb-17 15:00N 17°08' W 061°41'2 3.8
2018-Feb-17 14:24N 17°10' W 061°43'1 2.7
2018-Feb-17 14:00N 17°10' W 061°44'1 1.8
2018-Feb-17 13:28N 17°09' W 061°44'0 0.0
2018-Feb-17 12:58N 17°09' W 061°44'0 0.0
2018-Feb-17 12:25N 17°09' W 061°44'0 0.0
2018-Feb-17 11:52N 17°09' W 061°44'0 0.0
2018-Feb-17 11:25N 17°09' W 061°44'0 0.0
2018-Feb-17 10:58N 17°09' W 061°44'0 0.0
2018-Feb-17 10:19N 17°09' W 061°44'0 0.0
2018-Feb-17 09:58N 17°09' W 061°44'0 0.0
2018-Feb-17 09:28N 17°09' W 061°44'0 0.0
2018-Feb-17 08:55N 17°09' W 061°44'0 0.0
2018-Feb-17 08:28N 17°09' W 061°44'0 0.0
2018-Feb-17 07:52N 17°09' W 061°44'0 0.0
2018-Feb-17 07:22N 17°09' W 061°44'0 0.0
2018-Feb-17 06:46N 17°09' W 061°44'0 0.0
2018-Feb-17 06:28N 17°09' W 061°44'0 0.0
2018-Feb-17 05:49N 17°09' W 061°44'0 0.0
2018-Feb-17 05:25N 17°09' W 061°44'0 0.0
2018-Feb-17 04:58N 17°09' W 061°44'0 0.0
2018-Feb-17 04:28N 17°09' W 061°44'0 0.0
2018-Feb-17 03:58N 17°09' W 061°44'0 0.0
2018-Feb-17 03:28N 17°09' W 061°44'0 0.0
2018-Feb-17 02:55N 17°09' W 061°44'0 0.0
2018-Feb-17 02:28N 17°09' W 061°44'0 0.0
2018-Feb-17 01:58N 17°09' W 061°44'0 0.0
2018-Feb-17 01:28N 17°09' W 061°44'0 0.0
2018-Feb-17 00:49N 17°09' W 061°44'0 0.0
2018-Feb-17 00:22N 17°09' W 061°44'0 0.0
2018-Feb-16 23:58N 17°09' W 061°44'0 0.0
2018-Feb-16 23:28N 17°09' W 061°44'0 0.0
2018-Feb-16 22:55N 17°09' W 061°44'0 0.0
2018-Feb-16 22:07N 17°09' W 061°44'0 0.0
2018-Feb-16 21:52N 17°09' W 061°44'0 0.0
2018-Feb-16 21:28N 17°09' W 061°44'0 0.0
2018-Feb-16 20:58N 17°09' W 061°44'0 0.0
2018-Feb-16 20:28N 17°09' W 061°44'0 0.1
2018-Feb-16 19:58N 17°09' W 061°44'8 4.2
2018-Feb-16 18:01N 17°10' W 061°52'1 5.0
2018-Feb-16 17:54N 17°09' W 061°52'9 0.2
2018-Feb-14 17:25N 17°00' W 061°50'2 6.0
2018-Feb-14 17:00N 16°60' W 061°48'2 3.4
2018-Feb-14 16:28N 17°00' W 061°46'0 0.0
2018-Feb-14 15:58N 17°00' W 061°46'0 0.0
2018-Feb-14 15:28N 17°00' W 061°46'0 0.0
2018-Feb-14 14:58N 17°00' W 061°46'0 0.0
2018-Feb-14 14:28N 17°00' W 061°46'0 0.0
2018-Feb-14 13:55N 17°00' W 061°46'0 0.0
2018-Feb-14 13:28N 17°00' W 061°46'0 0.0
2018-Feb-14 12:58N 17°00' W 061°46'0 0.0
2018-Feb-14 12:28N 17°00' W 061°46'0 0.0
2018-Feb-14 11:58N 17°00' W 061°46'0 0.0
2018-Feb-14 11:28N 17°00' W 061°46'0 0.0
2018-Feb-14 10:58N 17°00' W 061°46'0 0.0
2018-Feb-14 10:28N 17°00' W 061°46'0 0.0
2018-Feb-14 09:58N 17°00' W 061°46'0 0.0
2018-Feb-14 09:28N 17°00' W 061°46'0 0.0
2018-Feb-14 08:58N 17°00' W 061°46'0 0.0
2018-Feb-14 08:28N 17°00' W 061°46'0 0.0
2018-Feb-14 07:58N 17°00' W 061°46'0 0.0
2018-Feb-14 07:28N 17°00' W 061°46'0 0.0
2018-Feb-14 06:58N 17°00' W 061°46'0 0.0
2018-Feb-14 06:28N 17°00' W 061°46'0 0.0
2018-Feb-14 05:58N 17°00' W 061°46'0 0.0
2018-Feb-14 05:28N 17°00' W 061°46'0 0.0
2018-Feb-14 04:58N 17°00' W 061°46'0 0.0
2018-Feb-14 04:28N 17°00' W 061°46'0 0.0
2018-Feb-14 03:58N 17°00' W 061°46'0 0.0
2018-Feb-14 03:25N 17°00' W 061°46'0 0.0
2018-Feb-14 02:58N 17°00' W 061°46'0 0.0
2018-Feb-14 02:28N 17°00' W 061°46'0 0.0
2018-Feb-14 01:58N 17°00' W 061°46'0 0.0
2018-Feb-14 01:28N 17°00' W 061°46'0 0.0
2018-Feb-14 00:58N 17°00' W 061°46'0 0.0
2018-Feb-14 00:28N 17°00' W 061°46'0 0.0
2018-Feb-13 23:58N 17°00' W 061°46'0 0.0
2018-Feb-13 23:28N 17°00' W 061°46'0 0.0
2018-Feb-13 22:58N 17°00' W 061°46'0 0.0
2018-Feb-13 22:28N 17°00' W 061°46'0 0.0
2018-Feb-13 21:58N 17°00' W 061°46'0 0.0
2018-Feb-13 21:28N 17°00' W 061°46'0 0.0
2018-Feb-13 20:58N 17°00' W 061°46'0 0.0
2018-Feb-13 20:28N 17°00' W 061°46'0 0.0
2018-Feb-13 19:58N 17°00' W 061°46'0 0.0
2018-Feb-13 19:28N 17°00' W 061°46'0 0.0
2018-Feb-13 18:58N 17°00' W 061°46'0 0.0
2018-Feb-13 18:28N 17°00' W 061°46'0 0.0
2018-Feb-13 17:58N 17°00' W 061°46'0 0.0
2018-Feb-13 17:25N 17°00' W 061°46'0 0.0
2018-Feb-13 16:58N 17°00' W 061°46'0 0.0
2018-Feb-13 16:28N 17°00' W 061°46'0 0.0
2018-Feb-13 15:58N 17°00' W 061°46'0 0.0
2018-Feb-13 15:28N 17°00' W 061°46'0 0.0
2018-Feb-13 14:58N 17°00' W 061°46'0 0.0
2018-Feb-13 14:28N 17°00' W 061°46'0 0.0
2018-Feb-13 13:58N 17°00' W 061°46'0 0.0
2018-Feb-13 13:28N 17°00' W 061°46'0 0.0
2018-Feb-13 12:58N 17°00' W 061°46'0 0.0
2018-Feb-13 12:28N 17°00' W 061°46'0 0.0
2018-Feb-13 11:58N 17°00' W 061°46'0 0.0
2018-Feb-13 11:28N 17°00' W 061°46'0 0.0
2018-Feb-13 10:58N 17°00' W 061°46'0 0.0
2018-Feb-13 10:28N 17°00' W 061°46'0 0.0
2018-Feb-13 09:58N 17°00' W 061°46'0 0.0
2018-Feb-13 09:28N 17°00' W 061°46'0 0.0
2018-Feb-13 08:58N 17°00' W 061°46'0 0.0
2018-Feb-13 08:28N 17°00' W 061°46'0 0.0
2018-Feb-13 07:58N 17°00' W 061°46'0 0.0
2018-Feb-13 07:28N 17°00' W 061°46'0 0.0
2018-Feb-13 06:58N 17°00' W 061°46'0 0.0
2018-Feb-13 06:28N 17°00' W 061°46'0 0.0
2018-Feb-13 05:58N 17°00' W 061°46'0 0.0
2018-Feb-13 05:28N 17°00' W 061°46'0 0.0
2018-Feb-13 04:58N 17°00' W 061°46'0 0.0
2018-Feb-13 04:28N 17°00' W 061°46'0 0.0
2018-Feb-13 03:58N 17°00' W 061°46'0 0.0
2018-Feb-13 03:28N 17°00' W 061°46'0 0.0
2018-Feb-13 02:58N 17°00' W 061°46'0 0.0
2018-Feb-13 02:28N 17°00' W 061°46'0 0.0
2018-Feb-13 01:58N 17°00' W 061°46'0 0.0
2018-Feb-13 01:28N 17°00' W 061°46'0 0.0
2018-Feb-13 00:58N 17°00' W 061°46'0 0.0
2018-Feb-13 00:25N 17°00' W 061°46'0 0.0
2018-Feb-12 23:58N 17°00' W 061°46'0 0.0
2018-Feb-12 23:25N 17°00' W 061°46'0 0.0
2018-Feb-12 22:58N 17°00' W 061°46'0 0.0
2018-Feb-12 22:28N 17°00' W 061°46'0 0.0
2018-Feb-12 21:58N 17°00' W 061°46'0 0.0
2018-Feb-12 21:28N 17°00' W 061°46'0 0.0
2018-Feb-12 20:55N 17°00' W 061°46'0 0.0
2018-Feb-12 20:28N 17°00' W 061°46'0 0.0
2018-Feb-12 19:58N 17°00' W 061°46'0 0.0
2018-Feb-12 19:28N 17°00' W 061°46'0 0.0
2018-Feb-12 18:58N 17°00' W 061°46'0 0.0
2018-Feb-12 18:28N 17°00' W 061°46'0 0.0
2018-Feb-12 17:55N 17°00' W 061°46'0 0.0
2018-Feb-12 17:28N 17°00' W 061°46'0 0.0
2018-Feb-12 16:58N 17°00' W 061°46'0 0.0
2018-Feb-12 16:28N 17°00' W 061°46'0 0.0
2018-Feb-12 15:58N 17°00' W 061°46'0 0.0
2018-Feb-12 15:16N 17°00' W 061°46'0 0.0
2018-Feb-12 14:58N 17°00' W 061°46'0 0.0
2018-Feb-12 14:28N 17°00' W 061°46'0 0.0
2018-Feb-12 13:58N 17°00' W 061°46'0 0.0
2018-Feb-12 13:28N 17°00' W 061°46'0 0.0
2018-Feb-12 12:58N 17°00' W 061°46'0 0.0
2018-Feb-12 12:28N 17°00' W 061°46'0 0.1
2018-Feb-12 11:58N 17°00' W 061°46'0 0.0
2018-Feb-12 11:28N 17°00' W 061°46'0 0.0
2018-Feb-12 10:58N 17°00' W 061°46'0 0.0
2018-Feb-12 10:28N 17°00' W 061°46'0 0.0
2018-Feb-12 09:58N 17°00' W 061°46'0 0.0
2018-Feb-12 09:28N 17°00' W 061°46'0 0.0
2018-Feb-12 08:55N 17°00' W 061°46'0 0.0
2018-Feb-12 08:28N 17°00' W 061°46'0 0.0
2018-Feb-12 07:58N 17°00' W 061°46'0 0.0
2018-Feb-12 07:25N 17°00' W 061°46'0 0.0
2018-Feb-12 06:58N 17°00' W 061°46'0 0.0
2018-Feb-12 06:13N 17°00' W 061°46'0 0.0
2018-Feb-12 05:58N 17°00' W 061°46'0 0.0
2018-Feb-12 05:28N 17°00' W 061°46'0 0.0
2018-Feb-12 04:58N 17°00' W 061°46'0 0.0
2018-Feb-12 04:22N 17°00' W 061°46'0 0.0
2018-Feb-12 03:58N 17°00' W 061°46'0 0.0
2018-Feb-12 03:25N 17°00' W 061°46'0 0.0
2018-Feb-12 02:58N 17°00' W 061°46'0 0.0
2018-Feb-12 02:28N 17°00' W 061°46'0 0.0
2018-Feb-12 01:55N 17°00' W 061°46'0 0.0
2018-Feb-12 01:25N 17°00' W 061°46'0 0.0
2018-Feb-12 00:58N 17°00' W 061°46'0 0.0
2018-Feb-12 00:28N 17°00' W 061°46'0 0.0
2018-Feb-11 23:55N 17°00' W 061°46'0 0.0
2018-Feb-11 23:28N 17°00' W 061°46'0 0.0
2018-Feb-11 22:55N 17°00' W 061°46'0 0.0
2018-Feb-11 22:28N 17°00' W 061°46'0 0.0
2018-Feb-11 21:58N 17°00' W 061°46'0 0.0
2018-Feb-11 21:28N 17°00' W 061°46'0 0.0
2018-Feb-11 20:55N 17°00' W 061°46'0 0.0
2018-Feb-11 20:25N 17°00' W 061°46'0 0.0
2018-Feb-11 19:58N 17°00' W 061°46'0 0.0
2018-Feb-11 19:28N 17°00' W 061°46'0 0.0
2018-Feb-11 18:58N 17°00' W 061°46'0 0.0
2018-Feb-11 18:28N 17°00' W 061°46'0 0.0
2018-Feb-11 17:58N 17°00' W 061°46'0 0.0
2018-Feb-11 17:28N 17°00' W 061°46'0 0.0
2018-Feb-11 16:55N 17°00' W 061°46'0 0.0
2018-Feb-11 16:28N 17°00' W 061°46'0 0.0
2018-Feb-11 15:58N 17°00' W 061°46'0 0.0
2018-Feb-11 15:28N 17°00' W 061°46'0 0.0
2018-Feb-11 14:58N 17°00' W 061°46'0 0.0
2018-Feb-11 14:28N 17°00' W 061°46'0 0.0
2018-Feb-11 13:55N 17°00' W 061°46'0 0.0
2018-Feb-11 13:28N 17°00' W 061°46'0 0.0
2018-Feb-11 12:58N 17°00' W 061°46'0 0.0
2018-Feb-11 12:28N 17°00' W 061°46'0 0.0
2018-Feb-11 11:58N 17°00' W 061°46'0 0.0
2018-Feb-11 11:28N 17°00' W 061°46'0 0.0
2018-Feb-11 10:58N 17°00' W 061°46'0 0.0
2018-Feb-11 10:28N 17°00' W 061°46'0 0.0
2018-Feb-11 09:55N 17°00' W 061°46'0 0.0
2018-Feb-11 09:28N 17°00' W 061°46'0 0.0
2018-Feb-11 08:55N 17°00' W 061°46'0 0.0
2018-Feb-11 08:28N 17°00' W 061°46'0 0.0
2018-Feb-11 07:58N 17°00' W 061°46'0 0.0
2018-Feb-11 07:28N 17°00' W 061°46'0 0.0
2018-Feb-11 06:49N 17°00' W 061°46'0 0.0
2018-Feb-11 06:25N 17°00' W 061°46'0 0.0
2018-Feb-11 05:58N 17°00' W 061°46'0 0.0
2018-Feb-11 05:28N 17°00' W 061°46'0 0.0
2018-Feb-11 04:58N 17°00' W 061°46'0 0.0
2018-Feb-11 04:28N 17°00' W 061°46'0 0.0
2018-Feb-11 03:58N 17°00' W 061°46'0 0.0
2018-Feb-11 03:28N 17°00' W 061°46'0 0.0
2018-Feb-11 02:58N 17°00' W 061°46'0 0.0
2018-Feb-11 02:28N 17°00' W 061°46'0 0.0
2018-Feb-11 01:58N 17°00' W 061°46'0 0.0
2018-Feb-11 01:28N 17°00' W 061°46'0 0.0
2018-Feb-11 00:58N 17°00' W 061°46'0 0.0
2018-Feb-11 00:28N 17°00' W 061°46'0 0.0
2018-Feb-10 23:58N 17°00' W 061°46'0 0.0
2018-Feb-10 23:28N 17°00' W 061°46'0 0.0
2018-Feb-10 22:58N 17°00' W 061°46'0 0.0
2018-Feb-10 22:28N 17°00' W 061°46'0 0.0
2018-Feb-10 21:58N 17°00' W 061°46'0 0.0
2018-Feb-10 21:28N 17°00' W 061°46'0 0.0
2018-Feb-10 20:58N 17°00' W 061°46'0 0.0
2018-Feb-10 20:28N 17°00' W 061°46'0 0.0
2018-Feb-10 19:58N 17°00' W 061°46'0 0.0
2018-Feb-10 19:28N 17°00' W 061°46'0 0.0
2018-Feb-10 18:58N 17°00' W 061°46'0 0.0
2018-Feb-10 18:25N 17°00' W 061°46'0 0.0
2018-Feb-10 17:58N 17°00' W 061°46'0 0.0
2018-Feb-10 17:28N 17°00' W 061°46'0 0.0
2018-Feb-10 16:58N 17°00' W 061°46'0 0.0
2018-Feb-10 16:28N 17°00' W 061°46'0 0.0
2018-Feb-10 15:58N 17°00' W 061°46'0 0.0
2018-Feb-10 15:28N 17°00' W 061°46'0 0.0
2018-Feb-10 14:58N 17°00' W 061°46'0 0.0
2018-Feb-10 14:28N 17°00' W 061°46'0 0.0
2018-Feb-10 13:55N 17°00' W 061°46'0 0.0
2018-Feb-10 13:28N 17°00' W 061°46'0 0.0
2018-Feb-10 12:49N 17°00' W 061°46'0 0.0
2018-Feb-10 12:28N 17°00' W 061°46'0 0.0
2018-Feb-10 11:55N 17°00' W 061°46'0 0.0
2018-Feb-10 11:28N 17°00' W 061°46'0 0.0
2018-Feb-10 10:58N 17°00' W 061°46'0 0.0
2018-Feb-10 10:28N 17°00' W 061°46'0 0.0
2018-Feb-10 09:58N 17°00' W 061°46'0 0.0
2018-Feb-10 09:25N 17°00' W 061°46'0 0.0
2018-Feb-10 08:58N 17°00' W 061°46'0 0.0
2018-Feb-10 08:28N 17°00' W 061°46'0 0.0
2018-Feb-10 07:58N 17°00' W 061°46'0 0.0
2018-Feb-10 07:28N 17°00' W 061°46'0 0.0
2018-Feb-10 06:58N 17°00' W 061°46'0 0.0
2018-Feb-10 06:25N 17°00' W 061°46'0 0.0
2018-Feb-10 05:58N 17°00' W 061°46'0 0.0
2018-Feb-10 05:28N 17°00' W 061°46'0 0.0
2018-Feb-10 04:58N 17°00' W 061°46'0 0.0
2018-Feb-10 04:28N 17°00' W 061°46'0 0.0
2018-Feb-10 03:55N 17°00' W 061°46'0 0.0
2018-Feb-10 03:28N 17°00' W 061°46'0 0.0
2018-Feb-10 02:58N 17°00' W 061°46'0 0.0
2018-Feb-10 02:28N 17°00' W 061°46'0 0.0
2018-Feb-10 01:58N 17°00' W 061°46'0 0.0
2018-Feb-10 01:28N 17°00' W 061°46'0 0.0
2018-Feb-10 00:55N 17°00' W 061°46'0 0.0
2018-Feb-10 00:25N 17°00' W 061°46'0 0.0
2018-Feb-09 23:58N 17°00' W 061°46'0 0.0
2018-Feb-09 23:28N 17°00' W 061°46'0 0.0
2018-Feb-09 22:58N 17°00' W 061°46'0 0.0
2018-Feb-09 22:46N 17°00' W 061°46'  
Track history (hours):
 
Tides and Currents Weather Stations Pressure Air Temp Water Temp Dewpoint Dewpoint Depression Visibility Wind Speed Wind Dir Waves Ship Positions

Abalone 2

Last reported at 2018-Feb-19 04:00 UTC. Time now 2018-Feb-19 04:14 UTC.
Position N 17°00' W 061°46'.

Type: Sailing vessel. MMSI: 227463080.

Date/timePositionNaut miles runAvg speedWind from/ knotsBaromVisibWave heightAir tempDewpointWater temp
2018-Feb-19 04:00N 17°00' W 061°46'0 0.0
2018-Feb-19 03:30N 17°00' W 061°46'0 0.0
2018-Feb-19 03:00N 17°00' W 061°46'0 0.0
2018-Feb-19 02:30N 17°00' W 061°46'0 0.0
2018-Feb-19 02:00N 17°00' W 061°46'0 0.0
2018-Feb-19 01:30N 17°00' W 061°46'0 0.0
2018-Feb-19 01:00N 17°00' W 061°46'0 0.0
2018-Feb-19 00:30N 17°00' W 061°46'0 0.0
2018-Feb-19 00:00N 17°00' W 061°46'0 0.0
2018-Feb-18 23:30N 17°00' W 061°46'0 0.0
2018-Feb-18 23:00N 17°00' W 061°46'0 0.0
2018-Feb-18 22:27N 17°00' W 061°46'0 0.0
2018-Feb-18 22:00N 17°00' W 061°46'0 0.0
2018-Feb-18 21:30N 17°00' W 061°46'0 0.0
2018-Feb-18 21:00N 17°00' W 061°46'0 0.3
2018-Feb-18 20:30N 17°00' W 061°46'1 1.9
2018-Feb-18 20:00N 16°60' W 061°47'3 0.1
2018-Feb-17 18:35N 16°59' W 061°49'0 5.2
2018-Feb-17 18:30N 16°59' W 061°49'2 3.9
2018-Feb-17 18:00N 16°58' W 061°47'2 4.6
2018-Feb-17 17:30N 16°59' W 061°45'2 4.5
2018-Feb-17 16:59N 17°00' W 061°43'6 4.3
2018-Feb-17 15:34N 17°05' W 061°40'1 5.4
2018-Feb-17 15:28N 17°06' W 061°40'2 5.2
2018-Feb-17 15:00N 17°08' W 061°41'2 3.8
2018-Feb-17 14:24N 17°10' W 061°43'1 2.7
2018-Feb-17 14:00N 17°10' W 061°44'1 1.8
2018-Feb-17 13:28N 17°09' W 061°44'0 0.0
2018-Feb-17 12:58N 17°09' W 061°44'0 0.0
2018-Feb-17 12:25N 17°09' W 061°44'0 0.0
2018-Feb-17 11:52N 17°09' W 061°44'0 0.0
2018-Feb-17 11:25N 17°09' W 061°44'0 0.0
2018-Feb-17 10:58N 17°09' W 061°44'0 0.0
2018-Feb-17 10:19N 17°09' W 061°44'0 0.0
2018-Feb-17 09:58N 17°09' W 061°44'0 0.0
2018-Feb-17 09:28N 17°09' W 061°44'0 0.0
2018-Feb-17 08:55N 17°09' W 061°44'0 0.0
2018-Feb-17 08:28N 17°09' W 061°44'0 0.0
2018-Feb-17 07:52N 17°09' W 061°44'0 0.0
2018-Feb-17 07:22N 17°09' W 061°44'0 0.0
2018-Feb-17 06:46N 17°09' W 061°44'0 0.0
2018-Feb-17 06:28N 17°09' W 061°44'0 0.0
2018-Feb-17 05:49N 17°09' W 061°44'0 0.0
2018-Feb-17 05:25N 17°09' W 061°44'0 0.0
2018-Feb-17 04:58N 17°09' W 061°44'0 0.0
2018-Feb-17 04:28N 17°09' W 061°44'0 0.0
2018-Feb-17 03:58N 17°09' W 061°44'0 0.0
2018-Feb-17 03:28N 17°09' W 061°44'0 0.0
2018-Feb-17 02:55N 17°09' W 061°44'0 0.0
2018-Feb-17 02:28N 17°09' W 061°44'0 0.0
2018-Feb-17 01:58N 17°09' W 061°44'0 0.0
2018-Feb-17 01:28N 17°09' W 061°44'0 0.0
2018-Feb-17 00:49N 17°09' W 061°44'0 0.0
2018-Feb-17 00:22N 17°09' W 061°44'0 0.0
2018-Feb-16 23:58N 17°09' W 061°44'0 0.0
2018-Feb-16 23:28N 17°09' W 061°44'0 0.0
2018-Feb-16 22:55N 17°09' W 061°44'0 0.0
2018-Feb-16 22:07N 17°09' W 061°44'0 0.0
2018-Feb-16 21:52N 17°09' W 061°44'0 0.0
2018-Feb-16 21:28N 17°09' W 061°44'0 0.0
2018-Feb-16 20:58N 17°09' W 061°44'0 0.0
2018-Feb-16 20:28N 17°09' W 061°44'0 0.1
2018-Feb-16 19:58N 17°09' W 061°44'8 4.2
2018-Feb-16 18:01N 17°10' W 061°52'1 5.0
2018-Feb-16 17:54N 17°09' W 061°52'9 0.2
2018-Feb-14 17:25N 17°00' W 061°50'2 6.0
2018-Feb-14 17:00N 16°60' W 061°48'2 3.4
2018-Feb-14 16:28N 17°00' W 061°46'0 0.0
2018-Feb-14 15:58N 17°00' W 061°46'0 0.0
2018-Feb-14 15:28N 17°00' W 061°46'0 0.0
2018-Feb-14 14:58N 17°00' W 061°46'0 0.0
2018-Feb-14 14:28N 17°00' W 061°46'0 0.0
2018-Feb-14 13:55N 17°00' W 061°46'0 0.0
2018-Feb-14 13:28N 17°00' W 061°46'0 0.0
2018-Feb-14 12:58N 17°00' W 061°46'0 0.0
2018-Feb-14 12:28N 17°00' W 061°46'0 0.0
2018-Feb-14 11:58N 17°00' W 061°46'0 0.0
2018-Feb-14 11:28N 17°00' W 061°46'0 0.0
2018-Feb-14 10:58N 17°00' W 061°46'0 0.0
2018-Feb-14 10:28N 17°00' W 061°46'0 0.0
2018-Feb-14 09:58N 17°00' W 061°46'0 0.0
2018-Feb-14 09:28N 17°00' W 061°46'0 0.0
2018-Feb-14 08:58N 17°00' W 061°46'0 0.0
2018-Feb-14 08:28N 17°00' W 061°46'0 0.0
2018-Feb-14 07:58N 17°00' W 061°46'0 0.0
2018-Feb-14 07:28N 17°00' W 061°46'0 0.0
2018-Feb-14 06:58N 17°00' W 061°46'0 0.0
2018-Feb-14 06:28N 17°00' W 061°46'0 0.0
2018-Feb-14 05:58N 17°00' W 061°46'0 0.0
2018-Feb-14 05:28N 17°00' W 061°46'0 0.0
2018-Feb-14 04:58N 17°00' W 061°46'0 0.0
2018-Feb-14 04:28N 17°00' W 061°46'0 0.0
2018-Feb-14 03:58N 17°00' W 061°46'0 0.0
2018-Feb-14 03:25N 17°00' W 061°46'0 0.0
2018-Feb-14 02:58N 17°00' W 061°46'0 0.0
2018-Feb-14 02:28N 17°00' W 061°46'0 0.0
2018-Feb-14 01:58N 17°00' W 061°46'0 0.0
2018-Feb-14 01:28N 17°00' W 061°46'0 0.0
2018-Feb-14 00:58N 17°00' W 061°46'0 0.0
2018-Feb-14 00:28N 17°00' W 061°46'0 0.0
2018-Feb-13 23:58N 17°00' W 061°46'0 0.0
2018-Feb-13 23:28N 17°00' W 061°46'0 0.0
2018-Feb-13 22:58N 17°00' W 061°46'0 0.0
2018-Feb-13 22:28N 17°00' W 061°46'0 0.0
2018-Feb-13 21:58N 17°00' W 061°46'0 0.0
2018-Feb-13 21:28N 17°00' W 061°46'0 0.0
2018-Feb-13 20:58N 17°00' W 061°46'0 0.0
2018-Feb-13 20:28N 17°00' W 061°46'0 0.0
2018-Feb-13 19:58N 17°00' W 061°46'0 0.0
2018-Feb-13 19:28N 17°00' W 061°46'0 0.0
2018-Feb-13 18:58N 17°00' W 061°46'0 0.0
2018-Feb-13 18:28N 17°00' W 061°46'0 0.0
2018-Feb-13 17:58N 17°00' W 061°46'0 0.0
2018-Feb-13 17:25N 17°00' W 061°46'0 0.0
2018-Feb-13 16:58N 17°00' W 061°46'0 0.0
2018-Feb-13 16:28N 17°00' W 061°46'0 0.0
2018-Feb-13 15:58N 17°00' W 061°46'0 0.0
2018-Feb-13 15:28N 17°00' W 061°46'0 0.0
2018-Feb-13 14:58N 17°00' W 061°46'0 0.0
2018-Feb-13 14:28N 17°00' W 061°46'0 0.0
2018-Feb-13 13:58N 17°00' W 061°46'0 0.0
2018-Feb-13 13:28N 17°00' W 061°46'0 0.0
2018-Feb-13 12:58N 17°00' W 061°46'0 0.0
2018-Feb-13 12:28N 17°00' W 061°46'0 0.0
2018-Feb-13 11:58N 17°00' W 061°46'0 0.0
2018-Feb-13 11:28N 17°00' W 061°46'0 0.0
2018-Feb-13 10:58N 17°00' W 061°46'0 0.0
2018-Feb-13 10:28N 17°00' W 061°46'0 0.0
2018-Feb-13 09:58N 17°00' W 061°46'0 0.0
2018-Feb-13 09:28N 17°00' W 061°46'0 0.0
2018-Feb-13 08:58N 17°00' W 061°46'0 0.0
2018-Feb-13 08:28N 17°00' W 061°46'0 0.0
2018-Feb-13 07:58N 17°00' W 061°46'0 0.0
2018-Feb-13 07:28N 17°00' W 061°46'0 0.0
2018-Feb-13 06:58N 17°00' W 061°46'0 0.0
2018-Feb-13 06:28N 17°00' W 061°46'0 0.0
2018-Feb-13 05:58N 17°00' W 061°46'0 0.0
2018-Feb-13 05:28N 17°00' W 061°46'0 0.0
2018-Feb-13 04:58N 17°00' W 061°46'0 0.0
2018-Feb-13 04:28N 17°00' W 061°46'0 0.0
2018-Feb-13 03:58N 17°00' W 061°46'0 0.0
2018-Feb-13 03:28N 17°00' W 061°46'0 0.0
2018-Feb-13 02:58N 17°00' W 061°46'0 0.0
2018-Feb-13 02:28N 17°00' W 061°46'0 0.0
2018-Feb-13 01:58N 17°00' W 061°46'0 0.0
2018-Feb-13 01:28N 17°00' W 061°46'0 0.0
2018-Feb-13 00:58N 17°00' W 061°46'0 0.0
2018-Feb-13 00:25N 17°00' W 061°46'0 0.0
2018-Feb-12 23:58N 17°00' W 061°46'0 0.0
2018-Feb-12 23:25N 17°00' W 061°46'0 0.0
2018-Feb-12 22:58N 17°00' W 061°46'0 0.0
2018-Feb-12 22:28N 17°00' W 061°46'0 0.0
2018-Feb-12 21:58N 17°00' W 061°46'0 0.0
2018-Feb-12 21:28N 17°00' W 061°46'0 0.0
2018-Feb-12 20:55N 17°00' W 061°46'0 0.0
2018-Feb-12 20:28N 17°00' W 061°46'0 0.0
2018-Feb-12 19:58N 17°00' W 061°46'0 0.0
2018-Feb-12 19:28N 17°00' W 061°46'0 0.0
2018-Feb-12 18:58N 17°00' W 061°46'0 0.0
2018-Feb-12 18:28N 17°00' W 061°46'0 0.0
2018-Feb-12 17:55N 17°00' W 061°46'0 0.0
2018-Feb-12 17:28N 17°00' W 061°46'0 0.0
2018-Feb-12 16:58N 17°00' W 061°46'0 0.0
2018-Feb-12 16:28N 17°00' W 061°46'0 0.0
2018-Feb-12 15:58N 17°00' W 061°46'0 0.0
2018-Feb-12 15:16N 17°00' W 061°46'0 0.0
2018-Feb-12 14:58N 17°00' W 061°46'0 0.0
2018-Feb-12 14:28N 17°00' W 061°46'0 0.0
2018-Feb-12 13:58N 17°00' W 061°46'0 0.0
2018-Feb-12 13:28N 17°00' W 061°46'0 0.0
2018-Feb-12 12:58N 17°00' W 061°46'0 0.0
2018-Feb-12 12:28N 17°00' W 061°46'0 0.1
2018-Feb-12 11:58N 17°00' W 061°46'0 0.0
2018-Feb-12 11:28N 17°00' W 061°46'0 0.0
2018-Feb-12 10:58N 17°00' W 061°46'0 0.0
2018-Feb-12 10:28N 17°00' W 061°46'0 0.0
2018-Feb-12 09:58N 17°00' W 061°46'0 0.0
2018-Feb-12 09:28N 17°00' W 061°46'0 0.0
2018-Feb-12 08:55N 17°00' W 061°46'0 0.0
2018-Feb-12 08:28N 17°00' W 061°46'0 0.0
2018-Feb-12 07:58N 17°00' W 061°46'0 0.0
2018-Feb-12 07:25N 17°00' W 061°46'0 0.0
2018-Feb-12 06:58N 17°00' W 061°46'0 0.0
2018-Feb-12 06:13N 17°00' W 061°46'0 0.0
2018-Feb-12 05:58N 17°00' W 061°46'0 0.0
2018-Feb-12 05:28N 17°00' W 061°46'0 0.0
2018-Feb-12 04:58N 17°00' W 061°46'0 0.0
2018-Feb-12 04:22N 17°00' W 061°46'0 0.0
2018-Feb-12 03:58N 17°00' W 061°46'0 0.0
2018-Feb-12 03:25N 17°00' W 061°46'0 0.0
2018-Feb-12 02:58N 17°00' W 061°46'0 0.0
2018-Feb-12 02:28N 17°00' W 061°46'0 0.0
2018-Feb-12 01:55N 17°00' W 061°46'0 0.0
2018-Feb-12 01:25N 17°00' W 061°46'0 0.0
2018-Feb-12 00:58N 17°00' W 061°46'0 0.0
2018-Feb-12 00:28N 17°00' W 061°46'0 0.0
2018-Feb-11 23:55N 17°00' W 061°46'0 0.0
2018-Feb-11 23:28N 17°00' W 061°46'0 0.0
2018-Feb-11 22:55N 17°00' W 061°46'0 0.0
2018-Feb-11 22:28N 17°00' W 061°46'0 0.0
2018-Feb-11 21:58N 17°00' W 061°46'0 0.0
2018-Feb-11 21:28N 17°00' W 061°46'0 0.0
2018-Feb-11 20:55N 17°00' W 061°46'0 0.0
2018-Feb-11 20:25N 17°00' W 061°46'0 0.0
2018-Feb-11 19:58N 17°00' W 061°46'0 0.0
2018-Feb-11 19:28N 17°00' W 061°46'0 0.0
2018-Feb-11 18:58N 17°00' W 061°46'0 0.0
2018-Feb-11 18:28N 17°00' W 061°46'0 0.0
2018-Feb-11 17:58N 17°00' W 061°46'0 0.0
2018-Feb-11 17:28N 17°00' W 061°46'0 0.0
2018-Feb-11 16:55N 17°00' W 061°46'0 0.0
2018-Feb-11 16:28N 17°00' W 061°46'0 0.0
2018-Feb-11 15:58N 17°00' W 061°46'0 0.0
2018-Feb-11 15:28N 17°00' W 061°46'0 0.0
2018-Feb-11 14:58N 17°00' W 061°46'0 0.0
2018-Feb-11 14:28N 17°00' W 061°46'0 0.0
2018-Feb-11 13:55N 17°00' W 061°46'0 0.0
2018-Feb-11 13:28N 17°00' W 061°46'0 0.0
2018-Feb-11 12:58N 17°00' W 061°46'0 0.0
2018-Feb-11 12:28N 17°00' W 061°46'0 0.0
2018-Feb-11 11:58N 17°00' W 061°46'0 0.0
2018-Feb-11 11:28N 17°00' W 061°46'0 0.0
2018-Feb-11 10:58N 17°00' W 061°46'0 0.0
2018-Feb-11 10:28N 17°00' W 061°46'0 0.0
2018-Feb-11 09:55N 17°00' W 061°46'0 0.0
2018-Feb-11 09:28N 17°00' W 061°46'0 0.0
2018-Feb-11 08:55N 17°00' W 061°46'0 0.0
2018-Feb-11 08:28N 17°00' W 061°46'0 0.0
2018-Feb-11 07:58N 17°00' W 061°46'0 0.0
2018-Feb-11 07:28N 17°00' W 061°46'0 0.0
2018-Feb-11 06:49N 17°00' W 061°46'0 0.0
2018-Feb-11 06:25N 17°00' W 061°46'0 0.0
2018-Feb-11 05:58N 17°00' W 061°46'0 0.0
2018-Feb-11 05:28N 17°00' W 061°46'0 0.0
2018-Feb-11 04:58N 17°00' W 061°46'0 0.0
2018-Feb-11 04:28N 17°00' W 061°46'0 0.0
2018-Feb-11 03:58N 17°00' W 061°46'0 0.0
2018-Feb-11 03:28N 17°00' W 061°46'0 0.0
2018-Feb-11 02:58N 17°00' W 061°46'0 0.0
2018-Feb-11 02:28N 17°00' W 061°46'0 0.0
2018-Feb-11 01:58N 17°00' W 061°46'0 0.0
2018-Feb-11 01:28N 17°00' W 061°46'0 0.0
2018-Feb-11 00:58N 17°00' W 061°46'0 0.0
2018-Feb-11 00:28N 17°00' W 061°46'0 0.0
2018-Feb-10 23:58N 17°00' W 061°46'0 0.0
2018-Feb-10 23:28N 17°00' W 061°46'0 0.0
2018-Feb-10 22:58N 17°00' W 061°46'0 0.0
2018-Feb-10 22:28N 17°00' W 061°46'0 0.0
2018-Feb-10 21:58N 17°00' W 061°46'0 0.0
2018-Feb-10 21:28N 17°00' W 061°46'0 0.0
2018-Feb-10 20:58N 17°00' W 061°46'0 0.0
2018-Feb-10 20:28N 17°00' W 061°46'0 0.0
2018-Feb-10 19:58N 17°00' W 061°46'0 0.0
2018-Feb-10 19:28N 17°00' W 061°46'0 0.0
2018-Feb-10 18:58N 17°00' W 061°46'0 0.0
2018-Feb-10 18:25N 17°00' W 061°46'0 0.0
2018-Feb-10 17:58N 17°00' W 061°46'0 0.0
2018-Feb-10 17:28N 17°00' W 061°46'0 0.0
2018-Feb-10 16:58N 17°00' W 061°46'0 0.0
2018-Feb-10 16:28N 17°00' W 061°46'0 0.0
2018-Feb-10 15:58N 17°00' W 061°46'0 0.0
2018-Feb-10 15:28N 17°00' W 061°46'0 0.0
2018-Feb-10 14:58N 17°00' W 061°46'0 0.0
2018-Feb-10 14:28N 17°00' W 061°46'0 0.0
2018-Feb-10 13:55N 17°00' W 061°46'0 0.0
2018-Feb-10 13:28N 17°00' W 061°46'0 0.0
2018-Feb-10 12:49N 17°00' W 061°46'0 0.0
2018-Feb-10 12:28N 17°00' W 061°46'0 0.0
2018-Feb-10 11:55N 17°00' W 061°46'0 0.0
2018-Feb-10 11:28N 17°00' W 061°46'0 0.0
2018-Feb-10 10:58N 17°00' W 061°46'0 0.0
2018-Feb-10 10:28N 17°00' W 061°46'0 0.0
2018-Feb-10 09:58N 17°00' W 061°46'0 0.0
2018-Feb-10 09:25N 17°00' W 061°46'0 0.0
2018-Feb-10 08:58N 17°00' W 061°46'0 0.0
2018-Feb-10 08:28N 17°00' W 061°46'0 0.0
2018-Feb-10 07:58N 17°00' W 061°46'0 0.0
2018-Feb-10 07:28N 17°00' W 061°46'0 0.0
2018-Feb-10 06:58N 17°00' W 061°46'0 0.0
2018-Feb-10 06:25N 17°00' W 061°46'0 0.0
2018-Feb-10 05:58N 17°00' W 061°46'0 0.0
2018-Feb-10 05:28N 17°00' W 061°46'0 0.0
2018-Feb-10 04:58N 17°00' W 061°46'0 0.0
2018-Feb-10 04:28N 17°00' W 061°46'0 0.0
2018-Feb-10 03:55N 17°00' W 061°46'0 0.0
2018-Feb-10 03:28N 17°00' W 061°46'0 0.0
2018-Feb-10 02:58N 17°00' W 061°46'0 0.0
2018-Feb-10 02:28N 17°00' W 061°46'0 0.0
2018-Feb-10 01:58N 17°00' W 061°46'0 0.0
2018-Feb-10 01:28N 17°00' W 061°46'0 0.0
2018-Feb-10 00:55N 17°00' W 061°46'0 0.0
2018-Feb-10 00:25N 17°00' W 061°46'0 0.0
2018-Feb-09 23:58N 17°00' W 061°46'0 0.0
2018-Feb-09 23:28N 17°00' W 061°46'0 0.0
2018-Feb-09 22:58N 17°00' W 061°46'0 0.0
2018-Feb-09 22:46N 17°00' W 061°46'  

Dump ship's entire track history